createdAt,value
2022-11-23T00:00:20.193Z,11.80
2022-11-23T00:03:27.516Z,14.00
2022-11-23T00:06:34.400Z,12.00
2022-11-23T00:09:41.470Z,12.70
2022-11-23T00:12:48.650Z,12.80
2022-11-23T00:15:55.578Z,12.00
2022-11-23T00:19:02.489Z,12.90
2022-11-23T00:22:09.059Z,12.20
2022-11-23T00:25:16.437Z,13.20
2022-11-23T00:28:23.324Z,9.10
2022-11-23T00:31:30.168Z,13.30
2022-11-23T00:34:37.442Z,15.20
2022-11-23T00:37:44.121Z,13.90
2022-11-23T00:40:51.391Z,13.40
2022-11-23T00:43:59.151Z,15.00
2022-11-23T00:47:06.311Z,10.50
2022-11-23T00:50:14.522Z,10.30
2022-11-23T00:53:21.473Z,14.90
2022-11-23T00:56:28.385Z,12.40
2022-11-23T00:59:35.736Z,10.40
2022-11-23T01:02:42.743Z,11.40
2022-11-23T01:05:49.803Z,12.50
2022-11-23T01:08:56.694Z,12.70
2022-11-23T01:12:04.014Z,13.00
2022-11-23T01:15:10.877Z,10.20
2022-11-23T01:18:17.917Z,14.60
2022-11-23T01:21:24.916Z,13.80
2022-11-23T01:24:28.177Z,22.10
2022-11-23T01:27:35.436Z,15.50
2022-11-23T01:30:42.907Z,14.10
2022-11-23T01:33:49.547Z,12.10
2022-11-23T01:36:56.917Z,15.10
2022-11-23T01:40:04.387Z,11.80
2022-11-23T01:43:11.056Z,14.70
2022-11-23T01:46:18.369Z,12.20
2022-11-23T01:49:25.360Z,10.10
2022-11-23T01:52:32.419Z,16.40
2022-11-23T01:55:39.841Z,13.00
2022-11-23T01:58:46.783Z,14.50
2022-11-23T02:01:53.870Z,12.00
2022-11-23T02:05:00.823Z,14.00
2022-11-23T02:08:07.984Z,9.50
2022-11-23T02:11:15.092Z,15.60
2022-11-23T02:14:23.702Z,14.50
2022-11-23T02:17:30.702Z,11.90
2022-11-23T02:20:37.563Z,13.90
2022-11-23T02:23:44.805Z,14.80
2022-11-23T02:26:51.914Z,14.50
2022-11-23T02:29:58.695Z,15.90
2022-11-23T02:33:06.143Z,14.80
2022-11-23T02:36:13.172Z,14.70
2022-11-23T02:39:20.165Z,13.10
2022-11-23T02:42:27.576Z,16.10
2022-11-23T02:45:36.447Z,11.80
2022-11-23T02:48:43.727Z,14.00
2022-11-23T02:51:51.245Z,18.20
2022-11-23T02:54:57.907Z,12.00
2022-11-23T02:58:05.268Z,14.40
2022-11-23T03:01:12.599Z,12.70
2022-11-23T03:04:25.919Z,13.90
2022-11-23T03:07:23.092Z,12.40
2022-11-23T03:10:30.009Z,12.20
2022-11-23T03:13:36.848Z,11.50
2022-11-23T03:16:44.221Z,13.60
2022-11-23T03:19:50.940Z,10.30
2022-11-23T03:22:58.421Z,13.30
2022-11-23T03:26:11.292Z,13.50
2022-11-23T03:29:09.032Z,12.60
2022-11-23T03:32:16.121Z,10.70
2022-11-23T03:35:23.101Z,9.50
2022-11-23T03:38:30.082Z,11.80
2022-11-23T03:41:36.921Z,10.90
2022-11-23T03:44:44.342Z,10.00
2022-11-23T03:47:51.414Z,8.70
2022-11-23T03:50:58.424Z,10.00
2022-11-23T03:54:05.894Z,10.60
2022-11-23T03:57:12.935Z,8.50
2022-11-23T04:00:19.656Z,10.10
2022-11-23T04:03:26.815Z,9.20
2022-11-23T04:06:33.506Z,9.30
2022-11-23T04:09:40.515Z,12.00
2022-11-23T04:12:47.857Z,8.50
2022-11-23T04:15:54.605Z,9.40
2022-11-23T04:19:02.207Z,8.40
2022-11-23T04:22:09.687Z,9.10
2022-11-23T04:25:16.428Z,11.30
2022-11-23T04:28:23.928Z,7.90
2022-11-23T04:31:31.146Z,7.90
2022-11-23T04:34:38.169Z,8.90
2022-11-23T04:37:45.609Z,13.10
2022-11-23T04:40:52.660Z,11.20
2022-11-23T04:43:59.757Z,10.00
2022-11-23T04:47:06.771Z,10.40
2022-11-23T04:50:13.830Z,6.90
2022-11-23T04:53:20.943Z,10.20
2022-11-23T04:56:28.012Z,5.40
2022-11-23T04:59:35.333Z,7.60
2022-11-23T05:02:42.292Z,8.40
2022-11-23T05:05:49.429Z,7.00
2022-11-23T05:08:56.490Z,6.60
2022-11-23T05:12:03.150Z,9.10
2022-11-23T05:15:10.324Z,6.90
2022-11-23T05:18:17.414Z,8.50
2022-11-23T05:21:24.551Z,8.60
2022-11-23T05:24:32.756Z,10.70
2022-11-23T05:27:39.706Z,11.20
2022-11-23T05:30:46.876Z,10.60
2022-11-23T05:33:54.375Z,8.40
2022-11-23T05:37:01.427Z,9.20
2022-11-23T05:40:08.504Z,12.40
2022-11-23T05:43:15.947Z,7.90
2022-11-23T05:46:22.713Z,9.00
2022-11-23T05:49:30.339Z,8.40
2022-11-23T05:52:38.059Z,8.70
2022-11-23T05:55:44.761Z,6.30
2022-11-23T05:58:52.190Z,10.70
2022-11-23T06:01:59.350Z,7.30
2022-11-23T06:05:06.461Z,8.50
2022-11-23T06:08:14.011Z,9.30
2022-11-23T06:11:21.111Z,8.00
2022-11-23T06:14:28.051Z,7.40
2022-11-23T06:17:35.573Z,10.90
2022-11-23T06:20:42.802Z,8.20
2022-11-23T06:23:49.992Z,11.00
2022-11-23T06:26:56.934Z,11.30
2022-11-23T06:30:03.982Z,8.40
2022-11-23T06:33:10.943Z,11.10
2022-11-23T06:36:18.004Z,9.40
2022-11-23T06:39:25.246Z,15.40
2022-11-23T06:42:39.049Z,10.40
2022-11-23T06:45:35.702Z,12.10
2022-11-23T06:48:42.858Z,8.70
2022-11-23T06:51:49.675Z,10.20
2022-11-23T06:54:57.019Z,12.50
2022-11-23T06:58:04.409Z,12.50
2022-11-23T07:01:11.263Z,22.30
2022-11-23T07:04:18.586Z,12.70
2022-11-23T07:07:25.329Z,13.20
2022-11-23T07:10:32.657Z,12.30
2022-11-23T07:13:40.078Z,10.90
2022-11-23T07:16:46.743Z,11.90
2022-11-23T07:19:54.080Z,9.20
2022-11-23T07:23:01.308Z,9.50
2022-11-23T07:26:08.011Z,10.10
2022-11-23T07:29:15.511Z,9.00
2022-11-23T07:32:22.933Z,9.80
2022-11-23T07:35:29.663Z,11.60
2022-11-23T07:38:37.133Z,6.60
2022-11-23T07:41:44.216Z,7.20
2022-11-23T07:44:51.294Z,11.80
2022-11-23T07:47:58.705Z,11.60
2022-11-23T07:51:05.655Z,7.50
2022-11-23T07:54:12.682Z,10.40
2022-11-23T07:57:19.892Z,9.50
2022-11-23T08:00:27.065Z,7.80
2022-11-23T08:03:34.242Z,8.40
2022-11-23T08:06:41.009Z,6.50
2022-11-23T08:09:42.007Z,8.20
2022-11-23T08:12:49.149Z,8.00
2022-11-23T08:15:56.377Z,11.30
2022-11-23T08:19:03.910Z,11.90
2022-11-23T08:22:14.639Z,7.60
2022-11-23T08:25:12.553Z,9.30
2022-11-23T08:28:20.111Z,7.10
2022-11-23T08:31:26.810Z,9.30
2022-11-23T08:34:34.492Z,7.10
2022-11-23T08:37:42.252Z,8.10
2022-11-23T08:40:48.893Z,7.40
2022-11-23T08:43:56.229Z,6.70
2022-11-23T08:47:03.253Z,10.60
2022-11-23T08:50:10.422Z,6.90
2022-11-23T08:53:17.864Z,5.90
2022-11-23T08:56:24.856Z,5.90
2022-11-23T08:59:32.017Z,7.60
2022-11-23T09:02:39.475Z,8.40
2022-11-23T09:05:46.277Z,7.80
2022-11-23T09:08:53.733Z,8.40
2022-11-23T09:12:01.166Z,7.30
2022-11-23T09:15:07.907Z,8.70
2022-11-23T09:18:15.378Z,6.80
2022-11-23T09:21:22.491Z,6.90
2022-11-23T09:24:29.657Z,6.20
2022-11-23T09:27:37.009Z,6.40
2022-11-23T09:40:57.622Z,10.40
2022-11-23T09:43:54.347Z,7.90
2022-11-23T09:47:01.457Z,3.20
2022-11-23T09:50:08.275Z,10.00
2022-11-23T09:53:15.160Z,8.10
2022-11-23T09:56:17.038Z,7.80
2022-11-23T09:59:24.351Z,7.00
2022-11-23T10:02:31.227Z,9.00
2022-11-23T10:05:38.140Z,7.30
2022-11-23T10:08:45.249Z,5.30
2022-11-23T10:11:51.875Z,8.20
2022-11-23T10:14:59.034Z,5.60
2022-11-23T10:18:06.297Z,7.80
2022-11-23T10:21:12.954Z,5.30
2022-11-23T10:24:20.364Z,6.20
2022-11-23T10:27:27.462Z,6.20
2022-11-23T10:30:34.564Z,4.90
2022-11-23T10:33:41.803Z,6.30
2022-11-23T10:36:49.075Z,5.60
2022-11-23T10:39:56.276Z,8.80
2022-11-23T10:43:03.608Z,5.50
2022-11-23T10:46:10.315Z,3.10
2022-11-23T10:49:17.609Z,3.50
2022-11-23T10:52:24.940Z,4.60
2022-11-23T10:55:32.133Z,6.00
2022-11-23T10:58:39.441Z,5.70
2022-11-23T11:01:46.548Z,3.70
2022-11-23T11:04:58.534Z,3.70
2022-11-23T11:07:55.044Z,5.60
2022-11-23T11:11:02.355Z,4.30
2022-11-23T11:14:09.353Z,3.30
2022-11-23T11:17:16.485Z,8.90
2022-11-23T11:20:23.984Z,7.40
2022-11-23T11:23:31.138Z,4.60
2022-11-23T11:26:38.396Z,5.50
2022-11-23T11:29:45.621Z,4.10
2022-11-23T11:32:52.418Z,3.10
2022-11-23T11:35:59.729Z,3.80
2022-11-23T11:39:18.271Z,3.80
2022-11-23T11:42:11.429Z,4.10
2022-11-23T11:45:19.028Z,4.00
2022-11-23T11:48:26.492Z,4.20
2022-11-23T11:51:33.376Z,3.50
2022-11-23T11:54:40.874Z,9.70
2022-11-23T11:57:47.932Z,4.60
2022-11-23T12:00:55.183Z,4.30
2022-11-23T12:04:02.408Z,3.40
2022-11-23T12:07:09.539Z,4.50
2022-11-23T12:10:16.484Z,2.90
2022-11-23T12:13:23.685Z,4.10
2022-11-23T12:16:30.667Z,5.50
2022-11-23T12:19:37.617Z,3.30
2022-11-23T12:22:45.098Z,5.60
2022-11-23T12:25:52.099Z,4.80
2022-11-23T12:28:59.236Z,5.60
2022-11-23T12:32:06.470Z,4.20
2022-11-23T12:35:14.150Z,4.10
2022-11-23T12:38:21.102Z,3.50
2022-11-23T12:41:28.004Z,4.60
2022-11-23T12:44:35.382Z,3.10
2022-11-23T12:47:41.926Z,6.40
2022-11-23T12:50:49.123Z,7.40
2022-11-23T12:53:56.362Z,3.00
2022-11-23T12:57:02.816Z,4.20
2022-11-23T13:00:10.145Z,5.20
2022-11-23T13:03:17.268Z,2.40
2022-11-23T13:06:24.280Z,5.30
2022-11-23T13:09:31.742Z,5.20
2022-11-23T13:12:38.449Z,4.50
2022-11-23T13:15:45.780Z,5.50
2022-11-23T13:18:53.450Z,4.90
2022-11-23T13:22:00.237Z,7.80
2022-11-23T13:25:07.922Z,5.50
2022-11-23T13:28:14.863Z,3.20
2022-11-23T13:31:21.843Z,7.60
2022-11-23T13:34:29.237Z,6.60
2022-11-23T13:37:36.182Z,7.70
2022-11-23T13:40:43.165Z,5.40
2022-11-23T13:43:49.707Z,3.30
2022-11-23T13:46:57.056Z,8.40
2022-11-23T13:50:04.265Z,5.40
2022-11-23T13:53:10.949Z,6.40
2022-11-23T13:56:18.108Z,4.70
2022-11-23T13:59:25.011Z,7.10
2022-11-23T14:02:32.073Z,3.70
2022-11-23T14:05:39.241Z,5.90
2022-11-23T14:08:45.781Z,6.10
2022-11-23T14:11:53.091Z,5.00
2022-11-23T14:15:00.030Z,5.30
2022-11-23T14:18:06.782Z,4.50
2022-11-23T14:21:14.082Z,5.10
2022-11-23T14:24:21.102Z,5.90
2022-11-23T14:30:32.364Z,5.20
2022-11-23T14:33:39.226Z,5.30
2022-11-23T14:36:46.187Z,4.20
2022-11-23T14:39:53.145Z,6.80
2022-11-23T14:43:00.478Z,6.50
2022-11-23T14:46:07.517Z,1.70
2022-11-23T14:49:14.389Z,4.40
2022-11-23T14:52:21.304Z,3.80
2022-11-23T14:55:27.889Z,7.80
2022-11-23T14:58:35.211Z,5.50
2022-11-23T15:01:42.191Z,3.80
2022-11-23T15:04:49.256Z,5.30
2022-11-23T15:07:56.630Z,6.30
2022-11-23T15:11:03.596Z,7.80
2022-11-23T15:14:10.495Z,6.00
2022-11-23T15:17:17.834Z,6.70
2022-11-23T15:20:24.456Z,5.40
2022-11-23T15:23:31.837Z,7.50
2022-11-23T15:26:54.472Z,6.90
2022-11-23T15:29:42.964Z,6.00
2022-11-23T15:32:49.888Z,4.60
2022-11-23T15:35:57.177Z,4.30
2022-11-23T15:39:03.728Z,6.40
2022-11-23T15:42:11.019Z,3.50
2022-11-23T15:45:17.939Z,8.50
2022-11-23T15:48:24.779Z,5.70
2022-11-23T15:51:32.050Z,3.90
2022-11-23T15:54:38.941Z,8.80
2022-11-23T15:57:45.751Z,6.00
2022-11-23T16:00:52.855Z,7.20
2022-11-23T16:04:00.281Z,7.00
2022-11-23T16:07:07.268Z,6.20
2022-11-23T16:10:14.301Z,8.60
2022-11-23T16:13:21.742Z,5.60
2022-11-23T16:16:28.722Z,10.60
2022-11-23T16:19:35.934Z,5.40
2022-11-23T16:22:43.213Z,6.00
2022-11-23T16:25:49.790Z,6.30
2022-11-23T16:28:57.066Z,7.40
2022-11-23T16:32:04.506Z,3.50
2022-11-23T16:35:11.326Z,8.90
2022-11-23T16:38:19.006Z,4.90
2022-11-23T16:41:26.217Z,5.50
2022-11-23T16:44:37.449Z,6.60
2022-11-23T16:47:36.876Z,9.50
2022-11-23T16:50:44.029Z,7.90
2022-11-23T16:54:13.032Z,10.10
2022-11-23T16:56:55.120Z,6.10
2022-11-23T17:00:02.570Z,6.20
2022-11-23T17:03:09.570Z,7.60
2022-11-23T17:06:16.497Z,13.10
2022-11-23T17:09:23.902Z,11.30
2022-11-23T17:12:30.832Z,9.40
2022-11-23T17:15:37.902Z,9.90
2022-11-23T17:18:44.834Z,5.60
2022-11-23T17:21:52.214Z,7.30
2022-11-23T17:24:59.204Z,9.80
2022-11-23T17:28:05.814Z,8.80
2022-11-23T17:31:12.812Z,9.60
2022-11-23T17:34:19.786Z,7.30
2022-11-23T17:37:26.746Z,8.80
2022-11-23T17:40:33.659Z,9.40
2022-11-23T17:43:40.885Z,11.10
2022-11-23T17:46:47.764Z,8.30
2022-11-23T17:49:54.888Z,7.10
2022-11-23T17:53:03.228Z,8.20
2022-11-23T17:56:10.370Z,8.20
2022-11-23T17:59:18.529Z,7.00
2022-11-23T18:02:26.229Z,8.10
2022-11-23T18:05:34.489Z,9.00
2022-11-23T18:08:41.680Z,11.20
2022-11-23T18:11:48.919Z,8.00
2022-11-23T18:14:55.582Z,14.80
2022-11-23T18:18:04.767Z,11.10
2022-11-23T18:21:11.960Z,7.20
2022-11-23T18:24:18.915Z,13.10
2022-11-23T18:27:26.173Z,9.40
2022-11-23T18:30:32.774Z,12.70
2022-11-23T18:33:40.023Z,11.50
2022-11-23T18:36:47.275Z,11.20
2022-11-23T18:39:53.795Z,12.10
2022-11-23T18:43:00.856Z,11.10
2022-11-23T18:46:07.571Z,17.30
2022-11-23T18:49:14.435Z,10.50
2022-11-23T18:52:21.377Z,8.30
2022-11-23T18:55:28.234Z,9.40
2022-11-23T18:58:35.127Z,8.70
2022-11-23T19:01:42.427Z,11.40
2022-11-23T19:04:49.238Z,11.20
2022-11-23T19:07:56.196Z,9.20
2022-11-23T19:11:03.180Z,11.20
2022-11-23T19:14:10.540Z,10.40
2022-11-23T19:17:17.572Z,14.00
2022-11-23T19:20:24.540Z,13.00
2022-11-23T19:23:31.871Z,13.70
2022-11-23T19:26:38.770Z,10.90
2022-11-23T19:29:45.712Z,16.80
2022-11-23T19:32:53.202Z,13.70
2022-11-23T19:35:59.772Z,11.70
2022-11-23T19:39:06.692Z,11.80
2022-11-23T19:42:14.123Z,9.90
2022-11-23T19:45:20.772Z,13.30
2022-11-23T19:48:27.744Z,11.20
2022-11-23T19:51:34.964Z,8.30
2022-11-23T19:54:41.565Z,16.70
2022-11-23T19:57:48.925Z,10.00
2022-11-23T20:00:55.736Z,10.80
2022-11-23T20:04:07.915Z,11.50
2022-11-23T20:07:04.697Z,15.80
2022-11-23T20:10:11.506Z,14.20
2022-11-23T20:13:18.938Z,14.80
2022-11-23T20:16:26.123Z,13.60
2022-11-23T20:19:33.187Z,12.90
2022-11-23T20:22:40.754Z,8.70
2022-11-23T20:25:47.458Z,17.10
2022-11-23T20:28:54.669Z,15.50
2022-11-23T20:32:02.121Z,11.60
2022-11-23T20:35:08.768Z,13.60
2022-11-23T20:38:16.232Z,10.80
2022-11-23T20:41:23.580Z,11.50
2022-11-23T20:44:33.896Z,11.60
2022-11-23T20:47:31.057Z,13.20
2022-11-23T20:50:37.762Z,12.20
2022-11-23T20:53:44.762Z,9.30
2022-11-23T20:56:52.272Z,9.50
2022-11-23T20:59:59.165Z,8.60
2022-11-23T21:03:06.280Z,12.90
2022-11-23T21:06:13.484Z,10.70
2022-11-23T21:09:20.434Z,9.50
2022-11-23T21:12:27.461Z,12.90
2022-11-23T21:15:34.130Z,7.00
2022-11-23T21:18:41.593Z,8.50
2022-11-23T21:21:49.084Z,12.30
2022-11-23T21:24:55.705Z,12.00
2022-11-23T21:28:03.141Z,8.70
2022-11-23T21:31:10.362Z,15.40
2022-11-23T21:34:17.384Z,9.80
2022-11-23T21:37:24.718Z,6.50
2022-11-23T21:40:31.788Z,15.80
2022-11-23T21:43:38.769Z,12.60
2022-11-23T21:46:46.321Z,10.50
2022-11-23T21:49:53.458Z,10.70
2022-11-23T21:53:00.327Z,10.30
2022-11-23T21:56:07.669Z,11.00
2022-11-23T21:59:14.563Z,11.00
2022-11-23T22:02:21.514Z,10.20
2022-11-23T22:05:28.532Z,14.40
2022-11-23T22:08:35.824Z,12.40
2022-11-23T22:11:42.601Z,9.70
2022-11-23T22:14:49.622Z,11.20
2022-11-23T22:17:56.903Z,8.90
2022-11-23T22:21:03.452Z,11.40
2022-11-23T22:24:10.566Z,10.70
2022-11-23T22:27:17.933Z,14.30
2022-11-23T22:30:24.585Z,13.90
2022-11-23T22:33:34.882Z,10.30
2022-11-23T22:36:42.460Z,10.30
2022-11-23T22:39:49.275Z,10.10
2022-11-23T22:42:56.075Z,11.60
2022-11-23T22:46:05.639Z,8.90
2022-11-23T22:49:12.826Z,8.80
2022-11-23T22:52:20.044Z,10.10
2022-11-23T22:55:26.819Z,9.10
2022-11-23T22:58:33.768Z,9.70
2022-11-23T23:01:44.028Z,6.50
2022-11-23T23:04:52.389Z,9.80
2022-11-23T23:07:59.341Z,8.10
2022-11-23T23:11:06.328Z,15.20
2022-11-23T23:14:13.409Z,11.60
2022-11-23T23:17:20.267Z,9.20
2022-11-23T23:20:27.212Z,11.00
2022-11-23T23:23:34.092Z,7.20
2022-11-23T23:26:40.963Z,14.20
2022-11-23T23:29:47.891Z,12.80
2022-11-23T23:32:54.842Z,12.70
2022-11-23T23:36:01.845Z,10.80
2022-11-23T23:39:09.273Z,10.20
2022-11-23T23:42:16.313Z,10.00
2022-11-23T23:45:23.278Z,9.30
2022-11-23T23:48:30.197Z,9.60
2022-11-23T23:51:37.085Z,9.50
2022-11-23T23:54:44.034Z,8.80
2022-11-23T23:57:51.035Z,12.00
